sensor_id;sensor_type;location;lat;lon;timestamp;pressure;altitude;pressure_sealevel;temperature;humidity
76551;BME280;65393;53.160;18.170;2023-02-28T00:00:37;102978.25;;;-2.88;73.13
76551;BME280;65393;53.160;18.170;2023-02-28T00:03:15;102984.40;;;-2.89;72.82
76551;BME280;65393;53.160;18.170;2023-02-28T00:05:42;102984.27;;;-2.92;72.59
76551;BME280;65393;53.160;18.170;2023-02-28T00:08:09;102981.34;;;-2.94;73.03
76551;BME280;65393;53.160;18.170;2023-02-28T00:10:36;102980.91;;;-2.93;73.12
76551;BME280;65393;53.160;18.170;2023-02-28T00:13:06;102980.41;;;-2.92;72.81
76551;BME280;65393;53.160;18.170;2023-02-28T00:15:33;102977.02;;;-2.94;72.43
76551;BME280;65393;53.160;18.170;2023-02-28T00:18:03;102984.38;;;-2.97;72.57
76551;BME280;65393;53.160;18.170;2023-02-28T00:20:30;102983.42;;;-3.02;72.70
76551;BME280;65393;53.160;18.170;2023-02-28T00:22:57;102983.92;;;-3.05;72.62
76551;BME280;65393;53.160;18.170;2023-02-28T00:25:25;102981.75;;;-3.10;72.71
76551;BME280;65393;53.160;18.170;2023-02-28T00:27:52;102985.67;;;-3.14;72.46
76551;BME280;65393;53.160;18.170;2023-02-28T00:30:23;102987.08;;;-3.21;72.56
76551;BME280;65393;53.160;18.170;2023-02-28T00:32:51;102985.79;;;-3.25;72.97
76551;BME280;65393;53.160;18.170;2023-02-28T00:35:17;102979.70;;;-3.29;73.15
76551;BME280;65393;53.160;18.170;2023-02-28T00:37:44;102977.69;;;-3.33;73.22
76551;BME280;65393;53.160;18.170;2023-02-28T00:40:11;102983.83;;;-3.39;73.57
76551;BME280;65393;53.160;18.170;2023-02-28T00:42:39;102984.73;;;-3.44;73.97
76551;BME280;65393;53.160;18.170;2023-02-28T00:45:06;102984.08;;;-3.47;73.62
76551;BME280;65393;53.160;18.170;2023-02-28T00:47:35;102982.84;;;-3.48;73.44
76551;BME280;65393;53.160;18.170;2023-02-28T00:50:02;102980.96;;;-3.50;73.15
76551;BME280;65393;53.160;18.170;2023-02-28T00:52:29;102982.73;;;-3.52;72.85
76551;BME280;65393;53.160;18.170;2023-02-28T00:54:56;102984.51;;;-3.55;73.24
76551;BME280;65393;53.160;18.170;2023-02-28T00:57:23;102982.58;;;-3.58;73.21
76551;BME280;65393;53.160;18.170;2023-02-28T00:59:50;102983.16;;;-3.60;73.22
76551;BME280;65393;53.160;18.170;2023-02-28T01:02:16;102989.45;;;-3.62;73.53
76551;BME280;65393;53.160;18.170;2023-02-28T01:04:44;102987.52;;;-3.63;73.50
76551;BME280;65393;53.160;18.170;2023-02-28T01:07:11;102990.81;;;-3.63;73.60
76551;BME280;65393;53.160;18.170;2023-02-28T01:09:37;102993.38;;;-3.63;73.66
76551;BME280;65393;53.160;18.170;2023-02-28T01:12:05;102992.96;;;-3.65;73.57
76551;BME280;65393;53.160;18.170;2023-02-28T01:14:34;103001.48;;;-3.68;73.79
76551;BME280;65393;53.160;18.170;2023-02-28T01:17:01;103001.16;;;-3.71;73.84
76551;BME280;65393;53.160;18.170;2023-02-28T01:19:27;102999.58;;;-3.71;74.13
76551;BME280;65393;53.160;18.170;2023-02-28T01:21:54;102999.47;;;-3.73;74.19
76551;BME280;65393;53.160;18.170;2023-02-28T01:24:21;102997.02;;;-3.77;74.07
76551;BME280;65393;53.160;18.170;2023-02-28T01:26:48;102995.77;;;-3.80;74.22
76551;BME280;65393;53.160;18.170;2023-02-28T01:29:15;102995.13;;;-3.80;74.19
76551;BME280;65393;53.160;18.170;2023-02-28T01:31:41;102991.13;;;-3.79;74.31
76551;BME280;65393;53.160;18.170;2023-02-28T01:34:08;102990.58;;;-3.80;74.34
76551;BME280;65393;53.160;18.170;2023-02-28T01:36:35;102988.30;;;-3.83;74.49
76551;BME280;65393;53.160;18.170;2023-02-28T01:39:03;102988.91;;;-3.84;74.51
76551;BME280;65393;53.160;18.170;2023-02-28T01:41:32;102985.82;;;-3.84;74.69
76551;BME280;65393;53.160;18.170;2023-02-28T01:44:04;102984.73;;;-3.85;74.66
76551;BME280;65393;53.160;18.170;2023-02-28T01:46:34;102984.67;;;-3.86;74.64
76551;BME280;65393;53.160;18.170;2023-02-28T01:49:16;102981.80;;;-3.88;74.52
76551;BME280;65393;53.160;18.170;2023-02-28T01:51:47;102985.17;;;-3.92;74.65
76551;BME280;65393;53.160;18.170;2023-02-28T01:54:22;102980.44;;;-3.96;74.59
76551;BME280;65393;53.160;18.170;2023-02-28T01:56:57;102983.41;;;-3.96;74.84
76551;BME280;65393;53.160;18.170;2023-02-28T01:59:40;102982.24;;;-3.98;74.72
76551;BME280;65393;53.160;18.170;2023-02-28T02:02:20;102982.83;;;-4.03;74.99
76551;BME280;65393;53.160;18.170;2023-02-28T02:04:53;102982.35;;;-4.08;74.83
76551;BME280;65393;53.160;18.170;2023-02-28T02:07:21;102978.39;;;-4.11;75.10
76551;BME280;65393;53.160;18.170;2023-02-28T02:09:49;102976.13;;;-4.11;75.11
76551;BME280;65393;53.160;18.170;2023-02-28T02:12:27;102975.81;;;-4.11;75.39
76551;BME280;65393;53.160;18.170;2023-02-28T02:15:13;102976.61;;;-4.09;75.45
76551;BME280;65393;53.160;18.170;2023-02-28T02:17:45;102977.48;;;-4.09;75.39
76551;BME280;65393;53.160;18.170;2023-02-28T02:36:52;102986.47;;;-4.18;75.48
76551;BME280;65393;53.160;18.170;2023-02-28T02:39:31;102991.41;;;-4.19;75.63
76551;BME280;65393;53.160;18.170;2023-02-28T02:42:11;102991.22;;;-4.20;75.52
76551;BME280;65393;53.160;18.170;2023-02-28T02:44:45;102992.66;;;-4.22;75.33
76551;BME280;65393;53.160;18.170;2023-02-28T02:47:17;102991.29;;;-4.24;75.23
76551;BME280;65393;53.160;18.170;2023-02-28T02:49:53;102994.60;;;-4.27;75.32
76551;BME280;65393;53.160;18.170;2023-02-28T02:52:25;102988.35;;;-4.30;75.29
76551;BME280;65393;53.160;18.170;2023-02-28T02:54:58;102988.30;;;-4.31;75.59
76551;BME280;65393;53.160;18.170;2023-02-28T02:57:32;102991.77;;;-4.31;75.88
76551;BME280;65393;53.160;18.170;2023-02-28T03:00:03;102987.63;;;-4.28;75.96
76551;BME280;65393;53.160;18.170;2023-02-28T03:02:32;102985.17;;;-4.25;75.80
76551;BME280;65393;53.160;18.170;2023-02-28T03:05:04;102986.84;;;-4.26;75.85
76551;BME280;65393;53.160;18.170;2023-02-28T03:07:32;102987.19;;;-4.29;75.64
76551;BME280;65393;53.160;18.170;2023-02-28T03:09:58;102986.66;;;-4.32;75.66
76551;BME280;65393;53.160;18.170;2023-02-28T03:12:39;102994.83;;;-4.35;75.69
76551;BME280;65393;53.160;18.170;2023-02-28T03:15:21;102992.08;;;-4.37;75.76
76551;BME280;65393;53.160;18.170;2023-02-28T03:18:08;102990.76;;;-4.39;75.71
76551;BME280;65393;53.160;18.170;2023-02-28T03:23:23;102995.01;;;-4.44;75.50
76551;BME280;65393;53.160;18.170;2023-02-28T03:25:59;102997.40;;;-4.44;75.22
76551;BME280;65393;53.160;18.170;2023-02-28T03:31:42;103003.95;;;-4.51;74.90
76551;BME280;65393;53.160;18.170;2023-02-28T03:36:45;103000.38;;;-4.59;75.65
76551;BME280;65393;53.160;18.170;2023-02-28T03:39:19;103004.77;;;-4.57;76.05
76551;BME280;65393;53.160;18.170;2023-02-28T03:41:57;102999.29;;;-4.60;76.05
76551;BME280;65393;53.160;18.170;2023-02-28T03:44:33;103002.59;;;-4.65;76.15
76551;BME280;65393;53.160;18.170;2023-02-28T03:47:05;103010.53;;;-4.68;76.30
76551;BME280;65393;53.160;18.170;2023-02-28T03:49:38;103015.23;;;-4.68;76.06
76551;BME280;65393;53.160;18.170;2023-02-28T03:52:09;103014.80;;;-4.72;75.87
76551;BME280;65393;53.160;18.170;2023-02-28T03:54:57;103022.31;;;-4.74;76.02
76551;BME280;65393;53.160;18.170;2023-02-28T04:00:27;103020.72;;;-4.77;76.47
76551;BME280;65393;53.160;18.170;2023-02-28T04:02:50;103024.27;;;-4.76;76.41
76551;BME280;65393;53.160;18.170;2023-02-28T04:05:20;103021.63;;;-4.77;76.66
76551;BME280;65393;53.160;18.170;2023-02-28T04:07:47;103024.23;;;-4.74;76.97
76551;BME280;65393;53.160;18.170;2023-02-28T04:10:16;103022.39;;;-4.70;77.25
76551;BME280;65393;53.160;18.170;2023-02-28T04:12:43;103020.36;;;-4.69;77.52
76551;BME280;65393;53.160;18.170;2023-02-28T04:15:10;103021.33;;;-4.67;77.68
76551;BME280;65393;53.160;18.170;2023-02-28T04:17:37;103019.36;;;-4.65;77.32
76551;BME280;65393;53.160;18.170;2023-02-28T04:20:05;103020.27;;;-4.65;76.86
76551;BME280;65393;53.160;18.170;2023-02-28T04:22:36;103018.11;;;-4.66;76.86
76551;BME280;65393;53.160;18.170;2023-02-28T04:25:04;103023.45;;;-4.66;76.96
76551;BME280;65393;53.160;18.170;2023-02-28T04:27:32;103020.95;;;-4.68;77.21
76551;BME280;65393;53.160;18.170;2023-02-28T04:29:59;103022.17;;;-4.68;77.18
76551;BME280;65393;53.160;18.170;2023-02-28T04:32:26;103020.25;;;-4.68;77.00
76551;BME280;65393;53.160;18.170;2023-02-28T04:34:52;103025.05;;;-4.69;76.63
76551;BME280;65393;53.160;18.170;2023-02-28T04:37:19;103030.62;;;-4.68;76.86
76551;BME280;65393;53.160;18.170;2023-02-28T04:39:46;103034.11;;;-4.71;76.83
76551;BME280;65393;53.160;18.170;2023-02-28T04:42:13;103036.42;;;-4.73;76.65
76551;BME280;65393;53.160;18.170;2023-02-28T04:44:40;103033.70;;;-4.77;76.68
76551;BME280;65393;53.160;18.170;2023-02-28T04:47:07;103029.93;;;-4.80;76.76
76551;BME280;65393;53.160;18.170;2023-02-28T04:49:34;103026.98;;;-4.76;77.49
76551;BME280;65393;53.160;18.170;2023-02-28T04:52:01;103028.92;;;-4.73;77.23
76551;BME280;65393;53.160;18.170;2023-02-28T04:54:28;103027.95;;;-4.72;77.16
76551;BME280;65393;53.160;18.170;2023-02-28T04:56:55;103035.27;;;-4.72;77.12
76551;BME280;65393;53.160;18.170;2023-02-28T04:59:22;103037.05;;;-4.76;76.73
76551;BME280;65393;53.160;18.170;2023-02-28T05:01:49;103031.52;;;-4.82;76.73
76551;BME280;65393;53.160;18.170;2023-02-28T05:04:16;103031.11;;;-4.86;76.70
76551;BME280;65393;53.160;18.170;2023-02-28T05:06:43;103035.60;;;-4.89;76.67
76551;BME280;65393;53.160;18.170;2023-02-28T05:09:10;103034.91;;;-4.89;76.89
76551;BME280;65393;53.160;18.170;2023-02-28T05:11:40;103038.20;;;-4.89;76.94
76551;BME280;65393;53.160;18.170;2023-02-28T05:14:11;103041.98;;;-4.89;76.96
76551;BME280;65393;53.160;18.170;2023-02-28T05:16:38;103042.83;;;-4.90;77.01
76551;BME280;65393;53.160;18.170;2023-02-28T05:19:05;103039.05;;;-4.89;76.92
76551;BME280;65393;53.160;18.170;2023-02-28T05:21:38;103041.80;;;-4.86;77.07
76551;BME280;65393;53.160;18.170;2023-02-28T05:24:14;103042.50;;;-4.81;76.73
76551;BME280;65393;53.160;18.170;2023-02-28T05:26:42;103042.33;;;-4.78;76.60
76551;BME280;65393;53.160;18.170;2023-02-28T05:29:09;103042.77;;;-4.76;76.95
76551;BME280;65393;53.160;18.170;2023-02-28T05:31:36;103042.09;;;-4.76;76.75
76551;BME280;65393;53.160;18.170;2023-02-28T05:34:03;103041.11;;;-4.78;76.83
76551;BME280;65393;53.160;18.170;2023-02-28T05:36:31;103040.06;;;-4.81;76.71
76551;BME280;65393;53.160;18.170;2023-02-28T05:38:58;103041.04;;;-4.82;77.02
76551;BME280;65393;53.160;18.170;2023-02-28T05:41:24;103042.63;;;-4.82;76.84
76551;BME280;65393;53.160;18.170;2023-02-28T05:43:52;103043.00;;;-4.81;76.75
76551;BME280;65393;53.160;18.170;2023-02-28T05:46:19;103044.17;;;-4.82;76.87
76551;BME280;65393;53.160;18.170;2023-02-28T05:48:47;103045.20;;;-4.79;76.93
76551;BME280;65393;53.160;18.170;2023-02-28T05:51:15;103047.51;;;-4.78;76.96
76551;BME280;65393;53.160;18.170;2023-02-28T05:53:42;103049.93;;;-4.78;77.02
76551;BME280;65393;53.160;18.170;2023-02-28T05:56:09;103044.89;;;-4.79;76.84
76551;BME280;65393;53.160;18.170;2023-02-28T05:58:36;103046.02;;;-4.77;77.10
76551;BME280;65393;53.160;18.170;2023-02-28T06:01:38;103047.83;;;-4.73;76.90
76551;BME280;65393;53.160;18.170;2023-02-28T06:04:08;103050.45;;;-4.70;76.97
76551;BME280;65393;53.160;18.170;2023-02-28T06:06:35;103051.23;;;-4.68;76.89
76551;BME280;65393;53.160;18.170;2023-02-28T06:09:04;103052.54;;;-4.64;76.74
76551;BME280;65393;53.160;18.170;2023-02-28T06:11:32;103052.63;;;-4.60;76.82
76551;BME280;65393;53.160;18.170;2023-02-28T06:14:00;103056.86;;;-4.56;76.98
76551;BME280;65393;53.160;18.170;2023-02-28T06:16:29;103056.61;;;-4.51;77.09
76551;BME280;65393;53.160;18.170;2023-02-28T06:19:02;103057.00;;;-4.48;76.87
76551;BME280;65393;53.160;18.170;2023-02-28T06:21:29;103059.11;;;-4.44;76.76
76551;BME280;65393;53.160;18.170;2023-02-28T06:23:57;103063.42;;;-4.41;76.75
76551;BME280;65393;53.160;18.170;2023-02-28T06:26:25;103068.60;;;-4.39;76.68
76551;BME280;65393;53.160;18.170;2023-02-28T06:28:52;103069.39;;;-4.34;76.42
76551;BME280;65393;53.160;18.170;2023-02-28T06:31:19;103063.02;;;-4.31;76.42
76551;BME280;65393;53.160;18.170;2023-02-28T06:33:47;103060.82;;;-4.27;76.64
76551;BME280;65393;53.160;18.170;2023-02-28T06:36:16;103064.16;;;-4.21;76.82
76551;BME280;65393;53.160;18.170;2023-02-28T06:38:43;103065.38;;;-4.12;76.54
76551;BME280;65393;53.160;18.170;2023-02-28T06:41:11;103070.10;;;-4.02;76.56
76551;BME280;65393;53.160;18.170;2023-02-28T06:43:41;103070.63;;;-3.93;76.63
76551;BME280;65393;53.160;18.170;2023-02-28T06:46:11;103070.27;;;-3.85;76.70
76551;BME280;65393;53.160;18.170;2023-02-28T06:48:40;103068.17;;;-3.79;76.63
76551;BME280;65393;53.160;18.170;2023-02-28T06:51:10;103072.23;;;-3.72;76.92
76551;BME280;65393;53.160;18.170;2023-02-28T06:53:37;103077.06;;;-3.63;76.74
76551;BME280;65393;53.160;18.170;2023-02-28T06:56:07;103081.30;;;-3.56;76.75
76551;BME280;65393;53.160;18.170;2023-02-28T06:58:34;103082.03;;;-3.49;76.76
76551;BME280;65393;53.160;18.170;2023-02-28T07:01:02;103086.66;;;-3.41;77.02
76551;BME280;65393;53.160;18.170;2023-02-28T07:03:29;103090.52;;;-3.31;76.77
76551;BME280;65393;53.160;18.170;2023-02-28T07:05:56;103094.58;;;-3.21;76.67
76551;BME280;65393;53.160;18.170;2023-02-28T07:08:24;103089.88;;;-3.09;76.83
76551;BME280;65393;53.160;18.170;2023-02-28T07:10:55;103089.13;;;-2.97;76.91
76551;BME280;65393;53.160;18.170;2023-02-28T07:13:22;103091.82;;;-2.85;76.85
76551;BME280;65393;53.160;18.170;2023-02-28T07:15:57;103087.20;;;-2.78;76.79
76551;BME280;65393;53.160;18.170;2023-02-28T07:18:24;103086.27;;;-2.70;77.23
76551;BME280;65393;53.160;18.170;2023-02-28T07:20:52;103088.36;;;-2.60;77.17
76551;BME280;65393;53.160;18.170;2023-02-28T07:23:19;103085.95;;;-2.52;77.10
76551;BME280;65393;53.160;18.170;2023-02-28T07:25:46;103084.10;;;-2.45;77.35
76551;BME280;65393;53.160;18.170;2023-02-28T07:28:13;103081.20;;;-2.34;76.93
76551;BME280;65393;53.160;18.170;2023-02-28T07:30:41;103077.42;;;-2.23;76.94
76551;BME280;65393;53.160;18.170;2023-02-28T07:33:08;103076.39;;;-2.16;76.64
76551;BME280;65393;53.160;18.170;2023-02-28T07:35:35;103077.80;;;-2.09;76.62
76551;BME280;65393;53.160;18.170;2023-02-28T07:38:02;103078.91;;;-2.01;76.70
76551;BME280;65393;53.160;18.170;2023-02-28T07:40:30;103077.35;;;-1.94;76.85
76551;BME280;65393;53.160;18.170;2023-02-28T07:42:58;103077.23;;;-1.86;77.12
76551;BME280;65393;53.160;18.170;2023-02-28T07:45:26;103079.80;;;-1.80;76.64
76551;BME280;65393;53.160;18.170;2023-02-28T07:47:53;103079.55;;;-1.74;76.98
76551;BME280;65393;53.160;18.170;2023-02-28T07:50:20;103080.40;;;-1.68;76.87
76551;BME280;65393;53.160;18.170;2023-02-28T07:52:46;103084.73;;;-1.61;77.02
76551;BME280;65393;53.160;18.170;2023-02-28T07:55:13;103082.06;;;-1.56;76.82
76551;BME280;65393;53.160;18.170;2023-02-28T07:57:40;103076.37;;;-1.54;76.53
76551;BME280;65393;53.160;18.170;2023-02-28T08:00:10;103079.40;;;-1.49;76.75
76551;BME280;65393;53.160;18.170;2023-02-28T08:02:40;103080.96;;;-1.41;76.56
76551;BME280;65393;53.160;18.170;2023-02-28T08:05:07;103086.15;;;-1.42;76.97
76551;BME280;65393;53.160;18.170;2023-02-28T08:07:34;103086.88;;;-1.42;77.08
76551;BME280;65393;53.160;18.170;2023-02-28T08:10:01;103085.24;;;-1.36;76.60
76551;BME280;65393;53.160;18.170;2023-02-28T08:12:28;103089.91;;;-1.34;76.94
76551;BME280;65393;53.160;18.170;2023-02-28T08:14:54;103087.99;;;-1.33;76.81
76551;BME280;65393;53.160;18.170;2023-02-28T08:17:21;103087.02;;;-1.28;77.16
76551;BME280;65393;53.160;18.170;2023-02-28T08:19:48;103084.36;;;-1.22;76.74
76551;BME280;65393;53.160;18.170;2023-02-28T08:22:14;103079.77;;;-1.12;76.73
76551;BME280;65393;53.160;18.170;2023-02-28T08:24:41;103078.70;;;-1.02;76.96
76551;BME280;65393;53.160;18.170;2023-02-28T08:27:09;103078.26;;;-0.89;76.70
76551;BME280;65393;53.160;18.170;2023-02-28T08:29:37;103072.70;;;-0.77;76.47
76551;BME280;65393;53.160;18.170;2023-02-28T08:32:05;103073.80;;;-0.68;76.10
76551;BME280;65393;53.160;18.170;2023-02-28T08:34:32;103069.75;;;-0.61;75.99
76551;BME280;65393;53.160;18.170;2023-02-28T08:36:59;103061.21;;;-0.57;75.87
76551;BME280;65393;53.160;18.170;2023-02-28T08:39:26;103059.45;;;-0.50;75.95
76551;BME280;65393;53.160;18.170;2023-02-28T08:41:53;103057.31;;;-0.39;75.84
76551;BME280;65393;53.160;18.170;2023-02-28T08:44:20;103052.00;;;-0.29;75.76
76551;BME280;65393;53.160;18.170;2023-02-28T08:46:46;103048.67;;;-0.21;75.90
76551;BME280;65393;53.160;18.170;2023-02-28T08:49:13;103042.08;;;-0.13;75.61
76551;BME280;65393;53.160;18.170;2023-02-28T08:51:40;103041.08;;;-0.04;75.40
76551;BME280;65393;53.160;18.170;2023-02-28T08:54:08;103036.64;;;0.04;74.97
76551;BME280;65393;53.160;18.170;2023-02-28T08:56:35;103037.89;;;0.13;74.77
76551;BME280;65393;53.160;18.170;2023-02-28T08:59:02;103041.59;;;0.22;74.84
76551;BME280;65393;53.160;18.170;2023-02-28T09:01:30;103039.16;;;0.31;74.77
76551;BME280;65393;53.160;18.170;2023-02-28T09:03:58;103047.45;;;0.41;74.47
76551;BME280;65393;53.160;18.170;2023-02-28T09:06:26;103044.98;;;0.49;74.88
76551;BME280;65393;53.160;18.170;2023-02-28T09:08:56;103047.06;;;0.53;74.30
76551;BME280;65393;53.160;18.170;2023-02-28T09:11:25;103050.84;;;0.56;74.43
76551;BME280;65393;53.160;18.170;2023-02-28T09:13:52;103049.39;;;0.59;74.28
76551;BME280;65393;53.160;18.170;2023-02-28T09:16:19;103048.27;;;0.61;74.34
76551;BME280;65393;53.160;18.170;2023-02-28T09:18:46;103045.16;;;0.67;74.13
76551;BME280;65393;53.160;18.170;2023-02-28T09:21:15;103040.61;;;0.71;74.10
76551;BME280;65393;53.160;18.170;2023-02-28T09:23:43;103039.02;;;0.75;74.36
76551;BME280;65393;53.160;18.170;2023-02-28T09:26:15;103038.23;;;0.82;74.07
76551;BME280;65393;53.160;18.170;2023-02-28T09:28:43;103039.22;;;0.89;73.67
76551;BME280;65393;53.160;18.170;2023-02-28T09:31:26;103043.45;;;0.95;73.47
76551;BME280;65393;53.160;18.170;2023-02-28T09:33:58;103048.40;;;1.00;73.24
76551;BME280;65393;53.160;18.170;2023-02-28T09:36:27;103050.17;;;1.02;72.28
76551;BME280;65393;53.160;18.170;2023-02-28T09:38:56;103048.98;;;1.03;71.85
76551;BME280;65393;53.160;18.170;2023-02-28T09:41:25;103047.40;;;1.06;71.87
76551;BME280;65393;53.160;18.170;2023-02-28T09:44:00;103047.02;;;1.10;71.76
76551;BME280;65393;53.160;18.170;2023-02-28T09:47:23;103046.45;;;1.14;71.37
76551;BME280;65393;53.160;18.170;2023-02-28T09:49:23;103051.58;;;1.20;71.52
76551;BME280;65393;53.160;18.170;2023-02-28T09:54:24;103049.64;;;1.29;71.48
76551;BME280;65393;53.160;18.170;2023-02-28T09:56:58;103046.81;;;1.33;70.95
76551;BME280;65393;53.160;18.170;2023-02-28T09:59:36;103042.92;;;1.36;70.87
76551;BME280;65393;53.160;18.170;2023-02-28T10:04:52;103042.38;;;1.40;67.87
76551;BME280;65393;53.160;18.170;2023-02-28T10:09:59;103041.84;;;1.45;67.67
76551;BME280;65393;53.160;18.170;2023-02-28T10:12:29;103043.94;;;1.50;68.05
76551;BME280;65393;53.160;18.170;2023-02-28T10:14:59;103040.67;;;1.51;67.07
76551;BME280;65393;53.160;18.170;2023-02-28T10:17:36;103040.33;;;1.52;68.51
76551;BME280;65393;53.160;18.170;2023-02-28T10:20:10;103041.77;;;1.52;67.59
76551;BME280;65393;53.160;18.170;2023-02-28T10:23:04;103038.45;;;1.53;68.30
76551;BME280;65393;53.160;18.170;2023-02-28T10:25:36;103034.25;;;1.54;67.56
76551;BME280;65393;53.160;18.170;2023-02-28T10:28:14;103029.13;;;1.57;67.43
76551;BME280;65393;53.160;18.170;2023-02-28T10:30:52;103021.27;;;1.62;67.56
76551;BME280;65393;53.160;18.170;2023-02-28T10:33:21;103018.71;;;1.69;67.62
76551;BME280;65393;53.160;18.170;2023-02-28T10:35:49;103015.31;;;1.71;66.51
76551;BME280;65393;53.160;18.170;2023-02-28T10:38:22;103011.60;;;1.71;66.56
76551;BME280;65393;53.160;18.170;2023-02-28T10:40:50;103011.70;;;1.74;67.50
76551;BME280;65393;53.160;18.170;2023-02-28T10:46:10;103012.85;;;1.81;67.23
76551;BME280;65393;53.160;18.170;2023-02-28T10:48:44;103010.47;;;1.84;67.69
76551;BME280;65393;53.160;18.170;2023-02-28T10:51:15;103011.46;;;1.88;67.39
76551;BME280;65393;53.160;18.170;2023-02-28T10:53:53;103012.39;;;1.89;66.97
76551;BME280;65393;53.160;18.170;2023-02-28T10:56:24;103003.60;;;1.92;66.68
76551;BME280;65393;53.160;18.170;2023-02-28T10:59:29;103006.20;;;1.97;66.93
76551;BME280;65393;53.160;18.170;2023-02-28T11:01:56;103006.14;;;2.00;65.63
76551;BME280;65393;53.160;18.170;2023-02-28T11:07:01;103000.27;;;1.98;65.63
76551;BME280;65393;53.160;18.170;2023-02-28T11:09:33;103000.31;;;2.05;65.68
76551;BME280;65393;53.160;18.170;2023-02-28T11:12:07;102999.06;;;2.09;66.03
76551;BME280;65393;53.160;18.170;2023-02-28T11:14:57;103000.54;;;2.11;65.08
76551;BME280;65393;53.160;18.170;2023-02-28T11:17:27;102997.59;;;2.11;65.45
76551;BME280;65393;53.160;18.170;2023-02-28T11:20:06;102994.29;;;2.12;65.22
76551;BME280;65393;53.160;18.170;2023-02-28T11:22:37;102992.38;;;2.13;64.84
76551;BME280;65393;53.160;18.170;2023-02-28T11:25:13;102987.90;;;2.16;65.25
76551;BME280;65393;53.160;18.170;2023-02-28T11:27:46;102981.77;;;2.16;65.48
76551;BME280;65393;53.160;18.170;2023-02-28T11:30:39;102985.77;;;2.20;65.81
76551;BME280;65393;53.160;18.170;2023-02-28T11:33:29;102980.50;;;2.26;65.76
76551;BME280;65393;53.160;18.170;2023-02-28T11:36:02;102978.39;;;2.31;66.09
76551;BME280;65393;53.160;18.170;2023-02-28T11:38:32;102975.27;;;2.37;66.42
76551;BME280;65393;53.160;18.170;2023-02-28T11:41:13;102974.73;;;2.42;66.15
76551;BME280;65393;53.160;18.170;2023-02-28T11:46:29;102965.77;;;2.47;65.75
76551;BME280;65393;53.160;18.170;2023-02-28T11:49:47;102962.48;;;2.49;65.48
76551;BME280;65393;53.160;18.170;2023-02-28T11:52:05;102959.27;;;2.52;65.93
76551;BME280;65393;53.160;18.170;2023-02-28T12:03:03;102947.54;;;2.65;64.81
76551;BME280;65393;53.160;18.170;2023-02-28T12:05:42;102944.80;;;2.67;64.22
76551;BME280;65393;53.160;18.170;2023-02-28T12:14:22;102934.83;;;2.79;63.86
76551;BME280;65393;53.160;18.170;2023-02-28T12:19:45;102931.80;;;2.83;64.52
76551;BME280;65393;53.160;18.170;2023-02-28T12:22:47;102929.48;;;2.89;62.86
76551;BME280;65393;53.160;18.170;2023-02-28T12:25:38;102929.16;;;2.95;60.54
76551;BME280;65393;53.160;18.170;2023-02-28T12:28:14;102931.66;;;3.04;62.72
76551;BME280;65393;53.160;18.170;2023-02-28T12:31:04;102930.58;;;3.09;62.52
76551;BME280;65393;53.160;18.170;2023-02-28T12:33:37;102928.34;;;3.17;63.25
76551;BME280;65393;53.160;18.170;2023-02-28T12:36:11;102927.27;;;3.22;63.26
76551;BME280;65393;53.160;18.170;2023-02-28T12:44:20;102909.48;;;3.27;61.63
76551;BME280;65393;53.160;18.170;2023-02-28T12:46:51;102913.77;;;3.29;62.36
76551;BME280;65393;53.160;18.170;2023-02-28T12:49:25;102908.23;;;3.31;62.88
76551;BME280;65393;53.160;18.170;2023-02-28T12:51:57;102904.13;;;3.36;62.18
76551;BME280;65393;53.160;18.170;2023-02-28T12:54:37;102899.55;;;3.42;62.51
76551;BME280;65393;53.160;18.170;2023-02-28T12:57:39;102893.86;;;3.47;61.17
76551;BME280;65393;53.160;18.170;2023-02-28T13:00:14;102889.95;;;3.51;61.71
76551;BME280;65393;53.160;18.170;2023-02-28T13:03:12;102884.09;;;3.55;62.02
76551;BME280;65393;53.160;18.170;2023-02-28T13:06:05;102876.45;;;3.59;61.70
76551;BME280;65393;53.160;18.170;2023-02-28T13:11:26;102875.04;;;3.65;61.08
76551;BME280;65393;53.160;18.170;2023-02-28T13:13:59;102875.25;;;3.67;61.08
76551;BME280;65393;53.160;18.170;2023-02-28T13:16:27;102879.34;;;3.70;61.07
76551;BME280;65393;53.160;18.170;2023-02-28T13:19:09;102872.90;;;3.72;60.63
76551;BME280;65393;53.160;18.170;2023-02-28T13:21:43;102873.66;;;3.74;60.00
76551;BME280;65393;53.160;18.170;2023-02-28T13:24:11;102870.85;;;3.74;59.26
76551;BME280;65393;53.160;18.170;2023-02-28T13:29:31;102866.71;;;3.85;59.64
76551;BME280;65393;53.160;18.170;2023-02-28T13:39:50;102858.22;;;3.96;60.54
76551;BME280;65393;53.160;18.170;2023-02-28T13:45:20;102849.48;;;4.06;57.94
76551;BME280;65393;53.160;18.170;2023-02-28T13:47:54;102843.27;;;4.12;57.49
76551;BME280;65393;53.160;18.170;2023-02-28T13:50:31;102847.27;;;4.17;58.98
76551;BME280;65393;53.160;18.170;2023-02-28T13:53:30;102847.70;;;4.22;57.38
76551;BME280;65393;53.160;18.170;2023-02-28T13:58:54;102843.63;;;4.35;55.85
76551;BME280;65393;53.160;18.170;2023-02-28T14:01:56;102834.86;;;4.37;54.05
76551;BME280;65393;53.160;18.170;2023-02-28T14:04:37;102828.36;;;4.37;55.05
76551;BME280;65393;53.160;18.170;2023-02-28T14:07:16;102827.14;;;4.37;55.86
76551;BME280;65393;53.160;18.170;2023-02-28T14:09:49;102826.73;;;4.34;51.36
76551;BME280;65393;53.160;18.170;2023-02-28T14:12:53;102825.30;;;4.34;51.65
76551;BME280;65393;53.160;18.170;2023-02-28T14:20:43;102824.27;;;4.35;54.81
76551;BME280;65393;53.160;18.170;2023-02-28T14:28:46;102813.07;;;4.38;54.07
76551;BME280;65393;53.160;18.170;2023-02-28T14:31:25;102809.20;;;4.38;51.08
76551;BME280;65393;53.160;18.170;2023-02-28T14:34:17;102809.14;;;4.34;50.23
76551;BME280;65393;53.160;18.170;2023-02-28T14:37:02;102808.89;;;4.31;49.21
76551;BME280;65393;53.160;18.170;2023-02-28T14:39:30;102801.66;;;4.30;52.56
76551;BME280;65393;53.160;18.170;2023-02-28T14:41:57;102804.80;;;4.29;50.86